sensor_id;sensor_type;location;lat;lon;timestamp;pressure;altitude;pressure_sealevel;temperature;humidity
14612;BME280;7392;52.078;11.650;2024-03-07T00:01:21;101873.44;;;5.11;100.00
14612;BME280;7392;52.078;11.650;2024-03-07T00:03:50;101871.69;;;5.12;100.00
14612;BME280;7392;52.078;11.650;2024-03-07T00:06:17;101880.53;;;5.14;100.00
14612;BME280;7392;52.078;11.650;2024-03-07T00:08:47;101875.28;;;5.14;100.00
14612;BME280;7392;52.078;11.650;2024-03-07T00:11:15;101871.81;;;5.15;100.00
14612;BME280;7392;52.078;11.650;2024-03-07T00:13:44;101869.19;;;5.15;100.00
14612;BME280;7392;52.078;11.650;2024-03-07T00:16:11;101873.66;;;5.17;100.00
14612;BME280;7392;52.078;11.650;2024-03-07T00:18:39;101874.56;;;5.18;100.00
14612;BME280;7392;52.078;11.650;2024-03-07T00:21:08;101872.81;;;5.18;100.00
14612;BME280;7392;52.078;11.650;2024-03-07T00:23:36;101872.81;;;5.18;100.00
14612;BME280;7392;52.078;11.650;2024-03-07T00:26:03;101868.38;;;5.17;100.00
14612;BME280;7392;52.078;11.650;2024-03-07T00:28:32;101875.44;;;5.18;100.00
14612;BME280;7392;52.078;11.650;2024-03-07T00:31:05;101878.09;;;5.18;100.00
14612;BME280;7392;52.078;11.650;2024-03-07T00:33:34;101878.16;;;5.20;100.00
14612;BME280;7392;52.078;11.650;2024-03-07T00:36:23;101867.63;;;5.20;100.00
14612;BME280;7392;52.078;11.650;2024-03-07T00:38:51;101882.63;;;5.22;100.00
14612;BME280;7392;52.078;11.650;2024-03-07T00:41:19;101875.63;;;5.23;100.00
14612;BME280;7392;52.078;11.650;2024-03-07T00:43:47;101873.00;;;5.23;100.00
14612;BME280;7392;52.078;11.650;2024-03-07T00:46:14;101875.63;;;5.23;100.00
14612;BME280;7392;52.078;11.650;2024-03-07T00:48:43;101873.06;;;5.24;100.00
14612;BME280;7392;52.078;11.650;2024-03-07T00:51:11;101869.50;;;5.24;100.00
14612;BME280;7392;52.078;11.650;2024-03-07T00:53:40;101873.94;;;5.25;100.00
14612;BME280;7392;52.078;11.650;2024-03-07T00:56:08;101858.16;;;5.25;100.00
14612;BME280;7392;52.078;11.650;2024-03-07T00:58:36;101862.59;;;5.26;100.00
14612;BME280;7392;52.078;11.650;2024-03-07T01:01:03;101860.84;;;5.27;100.00
14612;BME280;7392;52.078;11.650;2024-03-07T01:03:31;101856.47;;;5.27;100.00
14612;BME280;7392;52.078;11.650;2024-03-07T01:05:58;101853.00;;;5.28;100.00
14612;BME280;7392;52.078;11.650;2024-03-07T01:08:26;101857.34;;;5.28;100.00
14612;BME280;7392;52.078;11.650;2024-03-07T01:10:56;101851.25;;;5.29;100.00
14612;BME280;7392;52.078;11.650;2024-03-07T01:13:24;101853.88;;;5.29;100.00
14612;BME280;7392;52.078;11.650;2024-03-07T01:15:51;101851.25;;;5.29;100.00
14612;BME280;7392;52.078;11.650;2024-03-07T01:18:19;101855.69;;;5.30;100.00
14612;BME280;7392;52.078;11.650;2024-03-07T01:20:47;101851.31;;;5.30;100.00
14612;BME280;7392;52.078;11.650;2024-03-07T01:23:15;101857.41;;;5.29;100.00
14612;BME280;7392;52.078;11.650;2024-03-07T01:25:43;101854.81;;;5.31;100.00
14612;BME280;7392;52.078;11.650;2024-03-07T01:28:12;101854.78;;;5.29;100.00
14612;BME280;7392;52.078;11.650;2024-03-07T01:30:40;101846.88;;;5.29;100.00
14612;BME280;7392;52.078;11.650;2024-03-07T01:33:08;101852.13;;;5.29;100.00
14612;BME280;7392;52.078;11.650;2024-03-07T01:35:36;101850.41;;;5.30;100.00
14612;BME280;7392;52.078;11.650;2024-03-07T01:38:03;101844.16;;;5.28;100.00
14612;BME280;7392;52.078;11.650;2024-03-07T01:40:31;101845.97;;;5.29;100.00
14612;BME280;7392;52.078;11.650;2024-03-07T01:42:59;101842.47;;;5.28;100.00
14612;BME280;7392;52.078;11.650;2024-03-07T01:45:29;101839.88;;;5.30;100.00
14612;BME280;7392;52.078;11.650;2024-03-07T01:47:57;101834.63;;;5.30;100.00
14612;BME280;7392;52.078;11.650;2024-03-07T01:50:25;101830.22;;;5.30;100.00
14612;BME280;7392;52.078;11.650;2024-03-07T01:52:53;101840.75;;;5.30;100.00
14612;BME280;7392;52.078;11.650;2024-03-07T01:55:23;101835.50;;;5.30;100.00
14612;BME280;7392;52.078;11.650;2024-03-07T01:57:50;101838.13;;;5.30;100.00
14612;BME280;7392;52.078;11.650;2024-03-07T02:00:18;101834.63;;;5.30;100.00
14612;BME280;7392;52.078;11.650;2024-03-07T02:02:47;101831.97;;;5.30;100.00
14612;BME280;7392;52.078;11.650;2024-03-07T02:05:15;101836.31;;;5.29;100.00
14612;BME280;7392;52.078;11.650;2024-03-07T02:07:43;101839.88;;;5.30;100.00
14612;BME280;7392;52.078;11.650;2024-03-07T02:10:11;101832.88;;;5.30;100.00
14612;BME280;7392;52.078;11.650;2024-03-07T02:12:39;101838.13;;;5.30;100.00
14612;BME280;7392;52.078;11.650;2024-03-07T02:15:08;101839.88;;;5.30;100.00
14612;BME280;7392;52.078;11.650;2024-03-07T02:17:36;101839.81;;;5.28;100.00
14612;BME280;7392;52.078;11.650;2024-03-07T02:20:06;101841.53;;;5.28;100.00
14612;BME280;7392;52.078;11.650;2024-03-07T02:22:39;101825.72;;;5.28;100.00
14612;BME280;7392;52.078;11.650;2024-03-07T02:25:08;101835.44;;;5.29;100.00
14612;BME280;7392;52.078;11.650;2024-03-07T02:27:37;101829.28;;;5.28;100.00
14612;BME280;7392;52.078;11.650;2024-03-07T02:30:06;101832.88;;;5.30;100.00
14612;BME280;7392;52.078;11.650;2024-03-07T02:32:35;101829.28;;;5.28;100.00
14612;BME280;7392;52.078;11.650;2024-03-07T02:35:04;101827.53;;;5.29;100.00
14612;BME280;7392;52.078;11.650;2024-03-07T02:37:32;101829.28;;;5.28;100.00
14612;BME280;7392;52.078;11.650;2024-03-07T02:40:01;101836.38;;;5.31;100.00
14612;BME280;7392;52.078;11.650;2024-03-07T02:42:29;101828.47;;;5.31;100.00
14612;BME280;7392;52.078;11.650;2024-03-07T02:44:57;101824.13;;;5.31;100.00
14612;BME280;7392;52.078;11.650;2024-03-07T02:47:24;101822.31;;;5.30;100.00
14612;BME280;7392;52.078;11.650;2024-03-07T02:49:52;101825.84;;;5.31;100.00
14612;BME280;7392;52.078;11.650;2024-03-07T02:52:20;101820.53;;;5.29;100.00
14612;BME280;7392;52.078;11.650;2024-03-07T02:54:47;101821.38;;;5.28;100.00
14612;BME280;7392;52.078;11.650;2024-03-07T02:57:17;101817.88;;;5.29;100.00
14612;BME280;7392;52.078;11.650;2024-03-07T02:59:44;101819.63;;;5.29;100.00
14612;BME280;7392;52.078;11.650;2024-03-07T03:02:12;101823.16;;;5.29;100.00
14612;BME280;7392;52.078;11.650;2024-03-07T03:04:40;101829.34;;;5.30;100.00
14612;BME280;7392;52.078;11.650;2024-03-07T03:07:08;101820.47;;;5.28;100.00
14612;BME280;7392;52.078;11.650;2024-03-07T03:09:35;101818.69;;;5.27;100.00
14612;BME280;7392;52.078;11.650;2024-03-07T03:12:06;101821.31;;;5.27;100.00
14612;BME280;7392;52.078;11.650;2024-03-07T03:14:36;101821.38;;;5.28;100.00
14612;BME280;7392;52.078;11.650;2024-03-07T03:17:04;101816.94;;;5.27;100.00
14612;BME280;7392;52.078;11.650;2024-03-07T03:19:35;101812.56;;;5.28;100.00
14612;BME280;7392;52.078;11.650;2024-03-07T03:22:03;101814.38;;;5.29;100.00
14612;BME280;7392;52.078;11.650;2024-03-07T03:24:31;101817.00;;;5.29;100.00
14612;BME280;7392;52.078;11.650;2024-03-07T03:26:59;101810.91;;;5.30;100.00
14612;BME280;7392;52.078;11.650;2024-03-07T03:29:26;101809.97;;;5.29;100.00
14612;BME280;7392;52.078;11.650;2024-03-07T03:31:56;101808.25;;;5.30;100.00
14612;BME280;7392;52.078;11.650;2024-03-07T03:34:24;101805.56;;;5.28;100.00
14612;BME280;7392;52.078;11.650;2024-03-07T03:36:53;101802.94;;;5.28;100.00
14612;BME280;7392;52.078;11.650;2024-03-07T03:39:20;101812.56;;;5.28;100.00
14612;BME280;7392;52.078;11.650;2024-03-07T03:41:50;101807.28;;;5.28;100.00
14612;BME280;7392;52.078;11.650;2024-03-07T03:44:17;101809.91;;;5.28;100.00
14612;BME280;7392;52.078;11.650;2024-03-07T03:46:45;101806.34;;;5.25;100.00
14612;BME280;7392;52.078;11.650;2024-03-07T03:49:15;101809.91;;;5.26;100.00
14612;BME280;7392;52.078;11.650;2024-03-07T03:51:42;101805.47;;;5.25;100.00
14612;BME280;7392;52.078;11.650;2024-03-07T03:54:13;101809.84;;;5.24;100.00
14612;BME280;7392;52.078;11.650;2024-03-07T03:56:41;101814.19;;;5.24;100.00
14612;BME280;7392;52.078;11.650;2024-03-07T03:59:09;101806.22;;;5.22;100.00
14612;BME280;7392;52.078;11.650;2024-03-07T04:01:37;101805.41;;;5.23;100.00
14612;BME280;7392;52.078;11.650;2024-03-07T04:04:04;101801.81;;;5.21;100.00
14612;BME280;7392;52.078;11.650;2024-03-07T04:06:34;101808.84;;;5.22;100.00
14612;BME280;7392;52.078;11.650;2024-03-07T04:09:02;101803.53;;;5.21;100.00
14612;BME280;7392;52.078;11.650;2024-03-07T04:11:31;101799.19;;;5.21;100.00
14612;BME280;7392;52.078;11.650;2024-03-07T04:13:59;101806.22;;;5.22;100.00
14612;BME280;7392;52.078;11.650;2024-03-07T04:16:27;101809.72;;;5.21;100.00
14612;BME280;7392;52.078;11.650;2024-03-07T04:18:55;101810.53;;;5.20;100.00
14612;BME280;7392;52.078;11.650;2024-03-07T04:21:22;101811.41;;;5.19;100.00
14612;BME280;7392;52.078;11.650;2024-03-07T04:23:53;101807.78;;;5.17;100.00
14612;BME280;7392;52.078;11.650;2024-03-07T04:26:21;101806.91;;;5.17;100.00
14612;BME280;7392;52.078;11.650;2024-03-07T04:28:48;101804.22;;;5.15;100.00
14612;BME280;7392;52.078;11.650;2024-03-07T04:31:16;101804.22;;;5.15;100.00
14612;BME280;7392;52.078;11.650;2024-03-07T04:33:44;101812.13;;;5.15;100.00
14612;BME280;7392;52.078;11.650;2024-03-07T04:36:13;101804.09;;;5.12;100.00
14612;BME280;7392;52.078;11.650;2024-03-07T04:38:40;101811.22;;;5.15;100.00
14612;BME280;7392;52.078;11.650;2024-03-07T04:41:13;101808.59;;;5.15;100.00
14612;BME280;7392;52.078;11.650;2024-03-07T04:43:41;101808.53;;;5.13;100.00
14612;BME280;7392;52.078;11.650;2024-03-07T04:46:10;101810.28;;;5.13;100.00
14612;BME280;7392;52.078;11.650;2024-03-07T04:48:37;101810.28;;;5.13;100.00
14612;BME280;7392;52.078;11.650;2024-03-07T04:51:05;101812.00;;;5.12;100.00
14612;BME280;7392;52.078;11.650;2024-03-07T04:53:33;101813.75;;;5.12;100.00
14612;BME280;7392;52.078;11.650;2024-03-07T04:56:03;101814.63;;;5.12;100.00
14612;BME280;7392;52.078;11.650;2024-03-07T04:58:32;101817.19;;;5.11;100.00
14612;BME280;7392;52.078;11.650;2024-03-07T05:01:00;101820.75;;;5.11;100.00
14612;BME280;7392;52.078;11.650;2024-03-07T05:03:28;101815.50;;;5.11;100.00
14612;BME280;7392;52.078;11.650;2024-03-07T05:05:56;101819.06;;;5.13;100.00
14612;BME280;7392;52.078;11.650;2024-03-07T05:08:26;101819.91;;;5.12;100.00
14612;BME280;7392;52.078;11.650;2024-03-07T05:10:54;101819.91;;;5.12;100.00
14612;BME280;7392;52.078;11.650;2024-03-07T05:13:22;101817.25;;;5.12;100.00
14612;BME280;7392;52.078;11.650;2024-03-07T05:15:51;101818.19;;;5.13;100.00
14612;BME280;7392;52.078;11.650;2024-03-07T05:18:19;101821.69;;;5.13;100.00
14612;BME280;7392;52.078;11.650;2024-03-07T05:20:47;101818.19;;;5.13;100.00
14612;BME280;7392;52.078;11.650;2024-03-07T05:23:15;101825.28;;;5.15;100.00
14612;BME280;7392;52.078;11.650;2024-03-07T05:25:44;101821.75;;;5.15;100.00
14612;BME280;7392;52.078;11.650;2024-03-07T05:28:12;101825.22;;;5.14;100.00
14612;BME280;7392;52.078;11.650;2024-03-07T05:30:40;101825.09;;;5.11;100.00
14612;BME280;7392;52.078;11.650;2024-03-07T05:33:09;101820.69;;;5.10;100.00
14612;BME280;7392;52.078;11.650;2024-03-07T05:35:37;101823.28;;;5.08;100.00
14612;BME280;7392;52.078;11.650;2024-03-07T05:38:04;101833.81;;;5.08;100.00
14612;BME280;7392;52.078;11.650;2024-03-07T05:40:32;101830.28;;;5.08;100.00
14612;BME280;7392;52.078;11.650;2024-03-07T05:43:00;101844.22;;;5.05;100.00
14612;BME280;7392;52.078;11.650;2024-03-07T05:45:28;101831.00;;;5.03;100.00
14612;BME280;7392;52.078;11.650;2024-03-07T05:47:56;101834.47;;;5.02;100.00
14612;BME280;7392;52.078;11.650;2024-03-07T05:50:25;101852.91;;;5.02;100.00
14612;BME280;7392;52.078;11.650;2024-03-07T05:52:53;101837.06;;;5.01;100.00
14612;BME280;7392;52.078;11.650;2024-03-07T05:55:28;101853.75;;;5.01;100.00
14612;BME280;7392;52.078;11.650;2024-03-07T05:58:02;101852.84;;;5.01;100.00
14612;BME280;7392;52.078;11.650;2024-03-07T06:00:33;101848.41;;;5.00;100.00
14612;BME280;7392;52.078;11.650;2024-03-07T06:03:03;101844.00;;;4.99;100.00
14612;BME280;7392;52.078;11.650;2024-03-07T06:05:33;101848.34;;;4.98;100.00
14612;BME280;7392;52.078;11.650;2024-03-07T06:08:02;101844.84;;;4.98;100.00
14612;BME280;7392;52.078;11.650;2024-03-07T06:10:34;101854.47;;;4.97;100.00
14612;BME280;7392;52.078;11.650;2024-03-07T06:13:01;101850.09;;;4.98;100.00
14612;BME280;7392;52.078;11.650;2024-03-07T06:15:38;101847.41;;;4.96;100.00
14612;BME280;7392;52.078;11.650;2024-03-07T06:18:07;101849.16;;;4.96;100.00
14612;BME280;7392;52.078;11.650;2024-03-07T06:20:39;101851.91;;;4.99;100.00
14612;BME280;7392;52.078;11.650;2024-03-07T06:23:08;101859.81;;;4.99;100.00
14612;BME280;7392;52.078;11.650;2024-03-07T06:25:38;101858.13;;;5.01;100.00
14612;BME280;7392;52.078;11.650;2024-03-07T06:28:14;101868.78;;;5.04;100.00
14612;BME280;7392;52.078;11.650;2024-03-07T06:30:42;101869.66;;;5.04;100.00
14612;BME280;7392;52.078;11.650;2024-03-07T06:33:11;101866.22;;;5.07;100.00
14612;BME280;7392;52.078;11.650;2024-03-07T06:35:41;101863.53;;;5.05;100.00
14612;BME280;7392;52.078;11.650;2024-03-07T06:38:09;101868.88;;;5.07;100.00
14612;BME280;7392;52.078;11.650;2024-03-07T06:40:39;101870.69;;;5.08;100.00
14612;BME280;7392;52.078;11.650;2024-03-07T06:43:11;101864.59;;;5.11;100.00
14612;BME280;7392;52.078;11.650;2024-03-07T06:45:44;101868.22;;;5.13;100.00
14612;BME280;7392;52.078;11.650;2024-03-07T06:48:16;101869.19;;;5.15;100.00
14612;BME280;7392;52.078;11.650;2024-03-07T06:50:55;101876.22;;;5.16;100.00
14612;BME280;7392;52.078;11.650;2024-03-07T06:53:24;101878.03;;;5.17;100.00
14612;BME280;7392;52.078;11.650;2024-03-07T06:56:08;101872.00;;;5.19;100.00
14612;BME280;7392;52.078;11.650;2024-03-07T06:58:39;101881.66;;;5.20;100.00
14612;BME280;7392;52.078;11.650;2024-03-07T07:01:18;101877.34;;;5.22;100.00
14612;BME280;7392;52.078;11.650;2024-03-07T07:04:09;101880.91;;;5.23;100.00
14612;BME280;7392;52.078;11.650;2024-03-07T07:06:41;101884.44;;;5.23;100.00
14612;BME280;7392;52.078;11.650;2024-03-07T07:09:26;101884.50;;;5.25;100.00
14612;BME280;7392;52.078;11.650;2024-03-07T07:12:11;101886.31;;;5.28;100.00
14612;BME280;7392;52.078;11.650;2024-03-07T07:14:44;101881.97;;;5.28;100.00
14612;BME280;7392;52.078;11.650;2024-03-07T07:17:33;101882.88;;;5.29;100.00
14612;BME280;7392;52.078;11.650;2024-03-07T07:20:18;101888.25;;;5.32;100.00
14612;BME280;7392;52.078;11.650;2024-03-07T07:22:58;101896.16;;;5.32;100.00
14612;BME280;7392;52.078;11.650;2024-03-07T07:25:32;101898.72;;;5.30;100.00
14612;BME280;7392;52.078;11.650;2024-03-07T07:28:08;101888.97;;;5.28;100.00
14612;BME280;7392;52.078;11.650;2024-03-07T07:30:43;101886.38;;;5.29;100.00
14612;BME280;7392;52.078;11.650;2024-03-07T07:33:26;101890.75;;;5.29;100.00
14612;BME280;7392;52.078;11.650;2024-03-07T07:35:58;101889.94;;;5.30;100.00
14612;BME280;7392;52.078;11.650;2024-03-07T07:38:31;101897.03;;;5.32;100.00
14612;BME280;7392;52.078;11.650;2024-03-07T07:41:03;101896.28;;;5.35;100.00
14612;BME280;7392;52.078;11.650;2024-03-07T07:43:53;101884.94;;;5.37;100.00
14612;BME280;7392;52.078;11.650;2024-03-07T07:46:37;101889.44;;;5.40;100.00
14612;BME280;7392;52.078;11.650;2024-03-07T07:49:11;101882.59;;;5.45;100.00
14612;BME280;7392;52.078;11.650;2024-03-07T07:51:42;101889.72;;;5.48;100.00
14612;BME280;7392;52.078;11.650;2024-03-07T07:54:33;101880.06;;;5.48;100.00
14612;BME280;7392;52.078;11.650;2024-03-07T07:57:08;101881.84;;;5.49;100.00
14612;BME280;7392;52.078;11.650;2024-03-07T07:59:52;101880.06;;;5.48;100.00
14612;BME280;7392;52.078;11.650;2024-03-07T08:02:24;101885.31;;;5.48;100.00
14612;BME280;7392;52.078;11.650;2024-03-07T08:04:58;101884.44;;;5.48;100.00
14612;BME280;7392;52.078;11.650;2024-03-07T08:07:43;101881.81;;;5.48;100.00
14612;BME280;7392;52.078;11.650;2024-03-07T08:10:23;101892.34;;;5.48;100.00
14612;BME280;7392;52.078;11.650;2024-03-07T08:12:56;101892.34;;;5.48;100.00
14612;BME280;7392;52.078;11.650;2024-03-07T08:15:30;101887.97;;;5.48;100.00
14612;BME280;7392;52.078;11.650;2024-03-07T08:18:15;101882.69;;;5.48;100.00
14612;BME280;7392;52.078;11.650;2024-03-07T08:20:49;101889.00;;;5.52;100.00
14612;BME280;7392;52.078;11.650;2024-03-07T08:23:32;101883.88;;;5.56;100.00
14612;BME280;7392;52.078;11.650;2024-03-07T08:26:16;101877.97;;;5.63;100.00
14612;BME280;7392;52.078;11.650;2024-03-07T08:28:52;101885.28;;;5.71;100.00
14612;BME280;7392;52.078;11.650;2024-03-07T08:31:31;101886.41;;;5.77;100.00
14612;BME280;7392;52.078;11.650;2024-03-07T08:34:01;101884.84;;;5.84;100.00
14612;BME280;7392;52.078;11.650;2024-03-07T08:36:31;101873.69;;;5.91;100.00
14612;BME280;7392;52.078;11.650;2024-03-07T08:39:06;101878.44;;;6.00;100.00
14612;BME280;7392;52.078;11.650;2024-03-07T08:41:39;101884.00;;;6.09;100.00
14612;BME280;7392;52.078;11.650;2024-03-07T08:44:19;101883.47;;;6.20;100.00
14612;BME280;7392;52.078;11.650;2024-03-07T08:47:02;101885.63;;;6.31;100.00
14612;BME280;7392;52.078;11.650;2024-03-07T08:49:37;101887.78;;;6.43;100.00
14612;BME280;7392;52.078;11.650;2024-03-07T08:52:15;101888.88;;;6.50;94.44
14612;BME280;7392;52.078;11.650;2024-03-07T08:54:45;101889.94;;;6.55;91.02
14612;BME280;7392;52.078;11.650;2024-03-07T08:57:28;101887.44;;;6.60;90.97
14612;BME280;7392;52.078;11.650;2024-03-07T09:00:23;101893.00;;;6.69;90.48
14612;BME280;7392;52.078;11.650;2024-03-07T09:03:09;101892.44;;;6.79;89.65
14612;BME280;7392;52.078;11.650;2024-03-07T09:05:46;101885.94;;;6.97;88.03
14612;BME280;7392;52.078;11.650;2024-03-07T09:08:19;101895.41;;;7.19;87.84
14612;BME280;7392;52.078;11.650;2024-03-07T09:10:50;101883.72;;;7.41;87.33
14612;BME280;7392;52.078;11.650;2024-03-07T09:13:31;101890.09;;;7.47;85.67
14612;BME280;7392;52.078;11.650;2024-03-07T09:16:01;101886.72;;;7.53;84.31
14612;BME280;7392;52.078;11.650;2024-03-07T09:18:36;101882.53;;;7.61;83.61
14612;BME280;7392;52.078;11.650;2024-03-07T09:21:12;101889.72;;;7.65;79.89
14612;BME280;7392;52.078;11.650;2024-03-07T09:23:46;101887.13;;;7.67;76.13
14612;BME280;7392;52.078;11.650;2024-03-07T09:26:17;101888.34;;;7.80;74.93
14612;BME280;7392;52.078;11.650;2024-03-07T09:28:50;101879.84;;;7.92;72.64
14612;BME280;7392;52.078;11.650;2024-03-07T09:31:44;101882.94;;;8.09;73.09
14612;BME280;7392;52.078;11.650;2024-03-07T09:34:15;101880.59;;;8.21;73.52
14612;BME280;7392;52.078;11.650;2024-03-07T09:36:55;101876.16;;;8.18;67.19
14612;BME280;7392;52.078;11.650;2024-03-07T09:39:36;101882.41;;;8.22;68.38
14612;BME280;7392;52.078;11.650;2024-03-07T09:42:13;101882.41;;;8.22;68.32
14612;BME280;7392;52.078;11.650;2024-03-07T09:44:50;101871.94;;;8.28;67.65
14612;BME280;7392;52.078;11.650;2024-03-07T09:47:32;101867.72;;;8.35;65.49
14612;BME280;7392;52.078;11.650;2024-03-07T09:50:07;101874.16;;;8.45;65.31
14612;BME280;7392;52.078;11.650;2024-03-07T09:52:52;101871.78;;;8.55;66.35
14612;BME280;7392;52.078;11.650;2024-03-07T09:55:42;101871.72;;;8.54;64.56
14612;BME280;7392;52.078;11.650;2024-03-07T09:58:20;101869.19;;;8.58;62.62
14612;BME280;7392;52.078;11.650;2024-03-07T10:00:53;101871.88;;;8.60;64.78
14612;BME280;7392;52.078;11.650;2024-03-07T10:03:34;101871.69;;;8.51;64.30
14612;BME280;7392;52.078;11.650;2024-03-07T10:06:06;101873.13;;;8.39;64.92
14612;BME280;7392;52.078;11.650;2024-03-07T10:08:50;101878.63;;;8.46;65.87
14612;BME280;7392;52.078;11.650;2024-03-07T10:11:22;101866.31;;;8.48;65.19
14612;BME280;7392;52.078;11.650;2024-03-07T10:13:57;101868.88;;;8.45;64.32
14612;BME280;7392;52.078;11.650;2024-03-07T10:16:31;101877.75;;;8.47;63.39
14612;BME280;7392;52.078;11.650;2024-03-07T10:19:04;101868.88;;;8.45;62.47
14612;BME280;7392;52.078;11.650;2024-03-07T10:21:45;101868.59;;;8.34;62.31
14612;BME280;7392;52.078;11.650;2024-03-07T10:24:28;101871.69;;;8.51;62.62
14612;BME280;7392;52.078;11.650;2024-03-07T10:27:08;101859.69;;;8.67;62.42
14612;BME280;7392;52.078;11.650;2024-03-07T10:29:39;101851.22;;;8.82;62.48
14612;BME280;7392;52.078;11.650;2024-03-07T10:32:21;101864.72;;;8.94;61.90
14612;BME280;7392;52.078;11.650;2024-03-07T10:34:54;101861.53;;;9.09;60.15
14612;BME280;7392;52.078;11.650;2024-03-07T10:37:36;101847.56;;;9.17;57.46
14612;BME280;7392;52.078;11.650;2024-03-07T10:40:09;101846.91;;;9.28;57.32
14612;BME280;7392;52.078;11.650;2024-03-07T10:42:47;101848.84;;;9.36;55.75
14612;BME280;7392;52.078;11.650;2024-03-07T10:45:29;101855.22;;;9.46;54.77
14612;BME280;7392;52.078;11.650;2024-03-07T10:48:11;101849.25;;;9.57;55.28
14612;BME280;7392;52.078;11.650;2024-03-07T10:50:52;101837.00;;;9.65;54.02
14612;BME280;7392;52.078;11.650;2024-03-07T10:53:35;101840.69;;;9.73;53.92
14612;BME280;7392;52.078;11.650;2024-03-07T10:56:18;101841.81;;;9.86;54.60
14612;BME280;7392;52.078;11.650;2024-03-07T10:59:11;101850.03;;;10.00;54.48
14612;BME280;7392;52.078;11.650;2024-03-07T11:01:59;101837.00;;;10.14;52.94
14612;BME280;7392;52.078;11.650;2024-03-07T11:04:39;101829.22;;;10.26;52.26
14612;BME280;7392;52.078;11.650;2024-03-07T11:07:08;101835.59;;;10.34;50.94
14612;BME280;7392;52.078;11.650;2024-03-07T11:09:45;101831.31;;;10.44;51.48
14612;BME280;7392;52.078;11.650;2024-03-07T11:12:29;101828.88;;;10.58;50.71
14612;BME280;7392;52.078;11.650;2024-03-07T11:15:01;101825.44;;;10.65;50.48
14612;BME280;7392;52.078;11.650;2024-03-07T11:17:44;101823.81;;;10.75;50.84
14612;BME280;7392;52.078;11.650;2024-03-07T11:20:20;101816.00;;;10.87;51.24
14612;BME280;7392;52.078;11.650;2024-03-07T11:23:30;101817.03;;;11.00;50.50
14612;BME280;7392;52.078;11.650;2024-03-07T11:26:04;101814.56;;;11.15;50.28
14612;BME280;7392;52.078;11.650;2024-03-07T11:28:44;101811.13;;;11.22;48.07
14612;BME280;7392;52.078;11.650;2024-03-07T11:31:27;101806.78;;;11.28;48.47
14612;BME280;7392;52.078;11.650;2024-03-07T11:34:19;101804.97;;;11.27;47.23
14612;BME280;7392;52.078;11.650;2024-03-07T11:36:51;101794.34;;;11.28;48.05
14612;BME280;7392;52.078;11.650;2024-03-07T11:39:39;101804.03;;;11.21;49.02
14612;BME280;7392;52.078;11.650;2024-03-07T11:42:26;101800.38;;;11.13;48.16
14612;BME280;7392;52.078;11.650;2024-03-07T11:45:18;101791.44;;;11.07;47.59
14612;BME280;7392;52.078;11.650;2024-03-07T11:48:00;101789.63;;;11.04;48.57
14612;BME280;7392;52.078;11.650;2024-03-07T11:50:37;101785.50;;;11.28;49.55
14612;BME280;7392;52.078;11.650;2024-03-07T11:53:21;101784.88;;;11.52;49.96
14612;BME280;7392;52.078;11.650;2024-03-07T11:56:07;101791.22;;;11.68;48.41
14612;BME280;7392;52.078;11.650;2024-03-07T11:58:46;101782.41;;;11.73;45.69
14612;BME280;7392;52.078;11.650;2024-03-07T12:01:22;101777.16;;;11.81;46.14
14612;BME280;7392;52.078;11.650;2024-03-07T12:04:00;101772.88;;;11.92;45.21
14612;BME280;7392;52.078;11.650;2024-03-07T12:06:37;101771.09;;;11.94;45.17
14612;BME280;7392;52.078;11.650;2024-03-07T12:09:07;101763.13;;;11.96;45.83
14612;BME280;7392;52.078;11.650;2024-03-07T12:11:48;101764.97;;;12.05;46.00
14612;BME280;7392;52.078;11.650;2024-03-07T12:14:23;101770.44;;;12.26;47.54
14612;BME280;7392;52.078;11.650;2024-03-07T12:16:51;101751.09;;;12.50;47.64
14612;BME280;7392;52.078;11.650;2024-03-07T12:19:27;101757.41;;;12.72;47.59
14612;BME280;7392;52.078;11.650;2024-03-07T12:22:08;101759.25;;;12.83;44.21
14612;BME280;7392;52.078;11.650;2024-03-07T12:24:59;101753.00;;;12.82;43.12
14612;BME280;7392;52.078;11.650;2024-03-07T12:27:36;101744.09;;;12.77;42.40
14612;BME280;7392;52.078;11.650;2024-03-07T12:30:16;101745.84;;;12.72;43.03
14612;BME280;7392;52.078;11.650;2024-03-07T12:32:50;101740.56;;;12.78;44.07
14612;BME280;7392;52.078;11.650;2024-03-07T12:35:24;101757.47;;;12.91;44.58
14612;BME280;7392;52.078;11.650;2024-03-07T12:37:58;101759.25;;;12.90;44.22
14612;BME280;7392;52.078;11.650;2024-03-07T12:40:33;101742.34;;;12.82;45.13
14612;BME280;7392;52.078;11.650;2024-03-07T12:43:15;101737.06;;;12.91;45.02
14612;BME280;7392;52.078;11.650;2024-03-07T12:45:53;101729.88;;;12.84;44.13
14612;BME280;7392;52.078;11.650;2024-03-07T12:48:32;101745.97;;;13.03;44.84
14612;BME280;7392;52.078;11.650;2024-03-07T12:51:04;101738.00;;;13.18;44.16
14612;BME280;7392;52.078;11.650;2024-03-07T12:53:40;101731.88;;;13.33;44.17
14612;BME280;7392;52.078;11.650;2024-03-07T12:56:19;101741.69;;;13.48;43.39
14612;BME280;7392;52.078;11.650;2024-03-07T12:58:51;101734.56;;;13.62;43.35
14612;BME280;7392;52.078;11.650;2024-03-07T13:01:26;101739.03;;;13.65;40.78
14612;BME280;7392;52.078;11.650;2024-03-07T13:04:04;101734.59;;;13.72;42.03
14612;BME280;7392;52.078;11.650;2024-03-07T13:06:44;101732.81;;;13.60;41.59
14612;BME280;7392;52.078;11.650;2024-03-07T13:09:23;101739.91;;;13.62;42.27
14612;BME280;7392;52.078;11.650;2024-03-07T13:12:08;101731.91;;;13.67;42.20
14612;BME280;7392;52.078;11.650;2024-03-07T13:14:45;101735.47;;;13.54;42.01
14612;BME280;7392;52.078;11.650;2024-03-07T13:17:21;101726.56;;;13.61;42.18
14612;BME280;7392;52.078;11.650;2024-03-07T13:19:55;101723.91;;;13.79;42.85
14612;BME280;7392;52.078;11.650;2024-03-07T13:22:31;101723.91;;;13.96;42.84
14612;BME280;7392;52.078;11.650;2024-03-07T13:25:13;101711.41;;;14.12;42.89